createdAt,value
2018-11-20T00:00:03.791Z,7.58
2018-11-20T00:00:16.202Z,7.58
2018-11-20T00:00:28.631Z,7.58
2018-11-20T00:00:41.209Z,7.58
2018-11-20T00:00:53.589Z,7.58
2018-11-20T00:01:05.975Z,7.58
2018-11-20T00:01:18.368Z,7.58
2018-11-20T00:01:31.031Z,7.58
2018-11-20T00:01:43.427Z,7.58
2018-11-20T00:01:55.796Z,7.58
2018-11-20T00:02:08.193Z,7.58
2018-11-20T00:02:20.586Z,7.58
2018-11-20T00:02:32.972Z,7.58
2018-11-20T00:02:45.351Z,7.58
2018-11-20T00:02:57.739Z,7.58
2018-11-20T00:03:10.250Z,7.58
2018-11-20T00:03:22.657Z,7.58
2018-11-20T00:03:35.069Z,6.27
2018-11-20T00:03:47.490Z,6.27
2018-11-20T00:03:59.892Z,6.27
2018-11-20T00:04:12.271Z,6.27
2018-11-20T00:04:24.674Z,6.27
2018-11-20T00:04:37.256Z,6.27
2018-11-20T00:04:49.656Z,6.27
2018-11-20T00:05:02.393Z,6.27
2018-11-20T00:05:15.504Z,6.27
2018-11-20T00:05:29.508Z,6.27
2018-11-20T00:05:41.989Z,6.27
2018-11-20T00:05:54.384Z,6.27
2018-11-20T00:06:06.768Z,6.27
2018-11-20T00:06:19.154Z,6.27
2018-11-20T00:06:31.550Z,6.27
2018-11-20T00:06:44.178Z,6.27
2018-11-20T00:06:56.560Z,6.27
2018-11-20T00:07:09.086Z,6.27
2018-11-20T00:07:21.466Z,6.27
2018-11-20T00:07:33.874Z,6.27
2018-11-20T00:07:46.301Z,6.27
2018-11-20T00:07:58.675Z,6.27
2018-11-20T00:08:11.058Z,6.27
2018-11-20T00:08:23.448Z,6.27
2018-11-20T00:08:35.993Z,6.27
2018-11-20T00:08:48.405Z,6.27
2018-11-20T00:09:00.850Z,6.27
2018-11-20T00:09:13.244Z,6.27
2018-11-20T00:09:25.632Z,6.27
2018-11-20T00:09:38.026Z,6.27
2018-11-20T00:09:50.421Z,6.27
2018-11-20T00:10:02.818Z,6.27
2018-11-20T00:10:15.208Z,6.27
2018-11-20T00:10:27.601Z,6.27
2018-11-20T00:10:39.991Z,6.27
2018-11-20T00:10:52.372Z,6.27
2018-11-20T00:11:04.749Z,6.27
2018-11-20T00:11:17.152Z,6.27
2018-11-20T00:11:29.533Z,6.27
2018-11-20T00:11:41.920Z,6.27
2018-11-20T00:11:54.350Z,6.27
2018-11-20T00:12:06.729Z,6.27
2018-11-20T00:12:19.163Z,6.27
2018-11-20T00:12:31.568Z,6.27
2018-11-20T00:12:43.976Z,6.27
2018-11-20T00:12:56.523Z,6.27
2018-11-20T00:13:08.929Z,6.27
2018-11-20T00:13:21.318Z,6.27
2018-11-20T00:13:33.696Z,6.27
2018-11-20T00:13:46.071Z,6.85
2018-11-20T00:13:58.474Z,6.85
2018-11-20T00:14:10.861Z,6.85
2018-11-20T00:14:23.255Z,6.85
2018-11-20T00:14:35.640Z,6.85
2018-11-20T00:14:48.029Z,6.85
2018-11-20T00:15:00.457Z,6.85
2018-11-20T00:15:12.856Z,6.85
2018-11-20T00:15:25.235Z,6.85
2018-11-20T00:15:37.608Z,6.85
2018-11-20T00:15:50.000Z,6.85
2018-11-20T00:16:02.388Z,6.85
2018-11-20T00:16:14.810Z,6.85
2018-11-20T00:16:27.387Z,6.85
2018-11-20T00:16:40.287Z,6.85
2018-11-20T00:16:52.671Z,6.85
2018-11-20T00:17:05.069Z,6.85
2018-11-20T00:17:17.456Z,6.85
2018-11-20T00:17:29.851Z,6.85
2018-11-20T00:17:42.232Z,6.85
2018-11-20T00:17:54.615Z,6.85
2018-11-20T00:18:07.030Z,6.85
2018-11-20T00:18:19.416Z,6.85
2018-11-20T00:18:31.848Z,6.85
2018-11-20T00:18:44.251Z,6.85
2018-11-20T00:18:56.661Z,6.85
2018-11-20T00:19:09.054Z,6.85
2018-11-20T00:19:21.443Z,6.85
2018-11-20T00:19:33.831Z,6.85
2018-11-20T00:19:46.243Z,6.85
2018-11-20T00:19:58.627Z,6.85
2018-11-20T00:20:11.182Z,6.85
2018-11-20T00:20:23.692Z,6.85
2018-11-20T00:20:36.083Z,6.85
2018-11-20T00:20:48.476Z,6.85
2018-11-20T00:21:00.866Z,6.85
2018-11-20T00:21:13.261Z,6.85
2018-11-20T00:21:25.826Z,6.85
2018-11-20T00:21:38.194Z,6.85
2018-11-20T00:21:50.579Z,6.85
2018-11-20T00:22:03.006Z,6.85
2018-11-20T00:22:15.406Z,6.85
2018-11-20T00:22:27.769Z,6.85
2018-11-20T00:22:40.148Z,6.85
2018-11-20T00:22:52.539Z,6.85
2018-11-20T00:23:04.925Z,6.85
2018-11-20T00:23:17.322Z,6.85
2018-11-20T00:23:29.719Z,6.85
2018-11-20T00:23:42.095Z,6.27
2018-11-20T00:23:54.481Z,6.27
2018-11-20T00:24:06.921Z,6.27
2018-11-20T00:24:19.341Z,6.27
2018-11-20T00:24:31.718Z,6.27
2018-11-20T00:24:44.115Z,6.27
2018-11-20T00:24:56.497Z,6.27
2018-11-20T00:25:08.906Z,6.27
2018-11-20T00:25:21.310Z,6.27
2018-11-20T00:25:33.762Z,6.27
2018-11-20T00:25:46.337Z,6.27
2018-11-20T00:25:58.728Z,6.27
2018-11-20T00:26:11.125Z,6.27
2018-11-20T00:26:23.538Z,6.27
2018-11-20T00:26:35.916Z,6.27
2018-11-20T00:26:48.292Z,6.27
2018-11-20T00:27:00.807Z,6.27
2018-11-20T00:27:13.239Z,6.27
2018-11-20T00:27:25.612Z,6.27
2018-11-20T00:27:38.001Z,6.27
2018-11-20T00:27:50.383Z,6.27
2018-11-20T00:28:02.772Z,6.27
2018-11-20T00:28:15.147Z,6.27
2018-11-20T00:28:27.538Z,6.27
2018-11-20T00:28:39.966Z,6.27
2018-11-20T00:28:52.343Z,6.27
2018-11-20T00:29:04.743Z,6.27
2018-11-20T00:29:17.143Z,6.27
2018-11-20T00:29:29.549Z,6.27
2018-11-20T00:29:42.083Z,6.27
2018-11-20T00:29:54.470Z,6.27
2018-11-20T00:30:06.867Z,6.27
2018-11-20T00:30:19.234Z,6.27
2018-11-20T00:30:31.627Z,6.27
2018-11-20T00:30:44.026Z,6.27
2018-11-20T00:30:56.406Z,6.27
2018-11-20T00:31:08.797Z,6.27
2018-11-20T00:31:21.192Z,6.27
2018-11-20T00:31:33.574Z,6.27
2018-11-20T00:31:45.952Z,6.27
2018-11-20T00:31:58.368Z,6.27
2018-11-20T00:32:10.767Z,6.27
2018-11-20T00:32:23.143Z,6.27
2018-11-20T00:32:35.524Z,6.27
2018-11-20T00:32:47.901Z,6.27
2018-11-20T00:33:00.310Z,6.27
2018-11-20T00:33:12.709Z,6.27
2018-11-20T00:33:25.088Z,6.27
2018-11-20T00:33:37.739Z,6.44
2018-11-20T00:33:50.101Z,6.44
2018-11-20T00:34:02.495Z,6.44
2018-11-20T00:34:14.922Z,6.44
2018-11-20T00:34:27.301Z,6.44
2018-11-20T00:34:39.693Z,6.44
2018-11-20T00:34:52.090Z,6.44
2018-11-20T00:35:04.505Z,6.44
2018-11-20T00:35:16.905Z,6.44
2018-11-20T00:35:29.297Z,6.44
2018-11-20T00:35:41.730Z,6.44
2018-11-20T00:35:54.114Z,6.44
2018-11-20T00:36:06.498Z,6.44
2018-11-20T00:36:18.884Z,6.44
2018-11-20T00:36:31.429Z,6.44
2018-11-20T00:36:43.818Z,6.44
2018-11-20T00:36:56.383Z,6.44
2018-11-20T00:37:08.753Z,6.44
2018-11-20T00:37:21.156Z,6.44
2018-11-20T00:37:33.547Z,6.44
2018-11-20T00:37:45.941Z,6.44
2018-11-20T00:37:58.323Z,6.44
2018-11-20T00:38:10.711Z,6.44
2018-11-20T00:38:23.090Z,6.44
2018-11-20T00:38:35.459Z,6.44
2018-11-20T00:38:47.877Z,6.44
2018-11-20T00:39:00.281Z,6.44
2018-11-20T00:39:12.670Z,6.44
2018-11-20T00:39:25.035Z,6.44
2018-11-20T00:39:37.434Z,6.44
2018-11-20T00:39:49.804Z,6.44
2018-11-20T00:40:02.218Z,6.44
2018-11-20T00:40:14.617Z,6.44
2018-11-20T00:40:27.009Z,6.44
2018-11-20T00:40:39.416Z,6.44
2018-11-20T00:40:51.788Z,6.44
2018-11-20T00:41:04.177Z,6.44
2018-11-20T00:41:16.554Z,6.44
2018-11-20T00:41:28.939Z,6.44
2018-11-20T00:41:41.355Z,6.44
2018-11-20T00:41:53.783Z,6.44
2018-11-20T00:42:06.166Z,6.44
2018-11-20T00:42:18.716Z,6.44
2018-11-20T00:42:32.219Z,6.44
2018-11-20T00:42:46.042Z,6.44
2018-11-20T00:42:58.420Z,6.44
2018-11-20T00:43:10.801Z,6.44
2018-11-20T00:43:23.181Z,6.44
2018-11-20T00:43:35.574Z,6.44
2018-11-20T00:43:47.963Z,7.08
2018-11-20T00:44:00.338Z,7.08
2018-11-20T00:44:12.779Z,7.08
2018-11-20T00:44:25.188Z,7.08
2018-11-20T00:44:37.574Z,7.08
2018-11-20T00:44:49.965Z,7.08
2018-11-20T00:45:02.375Z,7.08
2018-11-20T00:45:14.789Z,7.08
2018-11-20T00:45:27.237Z,7.08
2018-11-20T00:45:39.629Z,7.08
2018-11-20T00:45:52.041Z,7.08
2018-11-20T00:46:04.464Z,7.08
2018-11-20T00:46:16.848Z,7.08
2018-11-20T00:46:29.652Z,7.08
2018-11-20T00:46:42.044Z,7.08
2018-11-20T00:46:54.437Z,7.08
2018-11-20T00:47:06.828Z,7.08
2018-11-20T00:47:19.273Z,7.08
2018-11-20T00:47:31.672Z,7.08
2018-11-20T00:47:44.064Z,7.08
2018-11-20T00:47:56.499Z,7.08
2018-11-20T00:48:08.869Z,7.08
2018-11-20T00:48:21.301Z,7.08
2018-11-20T00:48:33.683Z,7.08
2018-11-20T00:48:46.081Z,7.08
2018-11-20T00:48:58.456Z,7.08
2018-11-20T00:49:10.945Z,7.08
2018-11-20T00:49:23.332Z,7.08
2018-11-20T00:49:36.382Z,7.08
2018-11-20T00:49:48.751Z,7.08
2018-11-20T00:50:01.285Z,7.08
2018-11-20T00:50:13.704Z,7.08
2018-11-20T00:50:26.765Z,7.08
2018-11-20T00:50:39.161Z,7.08
2018-11-20T00:50:51.552Z,7.08
2018-11-20T00:51:03.951Z,7.08
2018-11-20T00:51:16.343Z,7.08
2018-11-20T00:51:28.740Z,7.08
2018-11-20T00:51:41.229Z,7.08
2018-11-20T00:51:53.717Z,7.08
2018-11-20T00:52:06.106Z,7.08
2018-11-20T00:52:18.582Z,7.08
2018-11-20T00:52:31.007Z,7.08
2018-11-20T00:52:43.413Z,7.08
2018-11-20T00:52:55.805Z,7.08
2018-11-20T00:53:08.238Z,7.08
2018-11-20T00:53:20.626Z,7.08
2018-11-20T00:53:32.989Z,7.08
2018-11-20T00:53:45.489Z,5.92
2018-11-20T00:53:57.883Z,5.92
2018-11-20T00:54:10.326Z,5.92
2018-11-20T00:54:22.754Z,5.92
2018-11-20T00:54:36.016Z,5.92
2018-11-20T00:54:48.411Z,5.92
2018-11-20T00:55:00.781Z,5.92
2018-11-20T00:55:13.176Z,5.92
2018-11-20T00:55:25.576Z,5.92
2018-11-20T00:55:37.983Z,5.92
2018-11-20T00:55:50.436Z,5.92
2018-11-20T00:56:02.873Z,5.92
2018-11-20T00:56:15.580Z,5.92
2018-11-20T00:56:28.033Z,5.92
2018-11-20T00:56:40.501Z,5.92
2018-11-20T00:56:52.890Z,5.92
2018-11-20T00:57:05.323Z,5.92
2018-11-20T00:57:19.800Z,5.92
2018-11-20T00:57:32.200Z,5.92
2018-11-20T00:57:44.581Z,5.92
2018-11-20T00:57:56.977Z,5.92
2018-11-20T00:58:09.402Z,5.92
2018-11-20T00:58:21.786Z,5.92
2018-11-20T00:58:34.171Z,5.92
2018-11-20T00:58:46.573Z,5.92
2018-11-20T00:58:58.979Z,5.92
2018-11-20T00:59:11.379Z,5.92
2018-11-20T00:59:23.979Z,5.92
2018-11-20T00:59:36.383Z,5.92
2018-11-20T00:59:48.797Z,5.92
2018-11-20T01:00:01.207Z,5.92
2018-11-20T01:00:13.654Z,5.92
2018-11-20T01:00:26.054Z,5.92
2018-11-20T01:00:38.540Z,5.92
2018-11-20T01:00:50.920Z,5.92
2018-11-20T01:01:03.297Z,5.92
2018-11-20T01:01:15.680Z,5.92
2018-11-20T01:01:28.142Z,5.92
2018-11-20T01:01:40.610Z,5.92
2018-11-20T01:01:52.992Z,5.92
2018-11-20T01:02:05.390Z,5.92
2018-11-20T01:02:18.454Z,5.92
2018-11-20T01:02:30.855Z,5.92
2018-11-20T01:02:43.255Z,5.92
2018-11-20T01:02:55.650Z,5.92
2018-11-20T01:03:08.385Z,5.92
2018-11-20T01:03:20.786Z,5.92
2018-11-20T01:03:33.178Z,5.92
2018-11-20T01:03:47.446Z,6.52
2018-11-20T01:03:59.931Z,6.52
2018-11-20T01:04:12.314Z,6.52
2018-11-20T01:04:24.691Z,6.52
2018-11-20T01:04:37.059Z,6.52
2018-11-20T01:04:49.441Z,6.52
2018-11-20T01:05:01.915Z,6.52
2018-11-20T01:05:14.847Z,6.52
2018-11-20T01:05:27.675Z,6.52
2018-11-20T01:05:41.120Z,6.52
2018-11-20T01:05:53.508Z,6.52
2018-11-20T01:06:05.956Z,6.52
2018-11-20T01:06:18.326Z,6.52
2018-11-20T01:06:30.734Z,6.52
2018-11-20T01:06:43.505Z,6.52
2018-11-20T01:06:55.902Z,6.52
2018-11-20T01:07:08.508Z,6.52
2018-11-20T01:07:20.930Z,6.52
2018-11-20T01:07:33.337Z,6.52
2018-11-20T01:07:45.735Z,6.52
2018-11-20T01:07:58.120Z,6.52
2018-11-20T01:08:10.509Z,6.52
2018-11-20T01:08:22.926Z,6.52
2018-11-20T01:08:35.481Z,6.52
2018-11-20T01:08:47.940Z,6.52
2018-11-20T01:09:00.316Z,6.52
2018-11-20T01:09:12.691Z,6.52
2018-11-20T01:09:25.089Z,6.52
2018-11-20T01:09:37.481Z,6.52
2018-11-20T01:09:49.965Z,6.52
2018-11-20T01:10:02.419Z,6.52
2018-11-20T01:10:14.835Z,6.52
2018-11-20T01:10:27.456Z,6.52
2018-11-20T01:10:39.844Z,6.52
2018-11-20T01:10:52.241Z,6.52
2018-11-20T01:11:04.732Z,6.52
2018-11-20T01:11:17.126Z,6.52
2018-11-20T01:11:29.516Z,6.52
2018-11-20T01:11:41.912Z,6.52
2018-11-20T01:11:54.394Z,6.52
2018-11-20T01:12:06.789Z,6.52
2018-11-20T01:12:19.163Z,6.52
2018-11-20T01:12:31.616Z,6.52
2018-11-20T01:12:43.991Z,6.52
2018-11-20T01:12:57.657Z,6.52
2018-11-20T01:13:10.040Z,6.52
2018-11-20T01:13:22.422Z,6.52
2018-11-20T01:13:34.803Z,6.52
2018-11-20T01:13:47.189Z,6.45
2018-11-20T01:13:59.601Z,6.45
2018-11-20T01:14:12.279Z,6.45
2018-11-20T01:14:24.663Z,6.45
2018-11-20T01:14:37.059Z,6.45
2018-11-20T01:14:49.548Z,6.45
2018-11-20T01:15:01.934Z,6.45
2018-11-20T01:15:14.364Z,6.45
2018-11-20T01:15:26.802Z,6.45
2018-11-20T01:15:39.197Z,6.45
2018-11-20T01:15:51.593Z,6.45
2018-11-20T01:16:03.985Z,6.45
2018-11-20T01:16:16.373Z,6.45
2018-11-20T01:16:28.764Z,6.45
2018-11-20T01:16:41.613Z,6.45
2018-11-20T01:16:53.997Z,6.45
2018-11-20T01:17:06.423Z,6.45
2018-11-20T01:17:18.793Z,6.45
2018-11-20T01:17:31.193Z,6.45
2018-11-20T01:17:43.567Z,6.45
2018-11-20T01:17:55.970Z,6.45
2018-11-20T01:18:08.367Z,6.45
2018-11-20T01:18:20.751Z,6.45
2018-11-20T01:18:33.282Z,6.45
2018-11-20T01:18:45.680Z,6.45
2018-11-20T01:18:58.057Z,6.45
2018-11-20T01:19:10.531Z,6.45
2018-11-20T01:19:22.909Z,6.45
2018-11-20T01:19:35.316Z,6.45
2018-11-20T01:19:47.717Z,6.45
2018-11-20T01:20:00.258Z,6.45
2018-11-20T01:20:12.660Z,6.45
2018-11-20T01:20:25.140Z,6.45
2018-11-20T01:20:37.526Z,6.45
2018-11-20T01:20:49.937Z,6.45
2018-11-20T01:21:02.305Z,6.45
2018-11-20T01:21:14.683Z,6.45
2018-11-20T01:21:27.120Z,6.45
2018-11-20T01:21:39.509Z,6.45
2018-11-20T01:21:51.885Z,6.45
2018-11-20T01:22:04.280Z,6.45
2018-11-20T01:22:16.675Z,6.45
2018-11-20T01:22:29.075Z,6.45
2018-11-20T01:22:41.498Z,6.45
2018-11-20T01:22:53.889Z,6.45
2018-11-20T01:23:06.254Z,6.45
2018-11-20T01:23:18.628Z,6.45
2018-11-20T01:23:31.002Z,6.45
2018-11-20T01:23:43.378Z,6.7
2018-11-20T01:23:55.751Z,6.7
2018-11-20T01:24:08.179Z,6.7
2018-11-20T01:24:20.559Z,6.7
2018-11-20T01:24:32.938Z,6.7
2018-11-20T01:24:45.312Z,6.7
2018-11-20T01:24:57.733Z,6.7
2018-11-20T01:25:10.193Z,6.7
2018-11-20T01:25:22.641Z,6.7
2018-11-20T01:25:35.166Z,6.7
2018-11-20T01:25:47.557Z,6.7
2018-11-20T01:25:59.951Z,6.7
2018-11-20T01:26:12.367Z,6.7
2018-11-20T01:26:24.796Z,6.7
2018-11-20T01:26:37.233Z,6.7
2018-11-20T01:26:49.668Z,6.7
2018-11-20T01:27:02.041Z,6.7
2018-11-20T01:27:14.426Z,6.7
2018-11-20T01:27:26.799Z,6.7
2018-11-20T01:27:39.396Z,6.7
2018-11-20T01:27:51.778Z,6.7
2018-11-20T01:28:04.171Z,6.7
2018-11-20T01:28:16.552Z,6.7
2018-11-20T01:28:28.954Z,6.7
2018-11-20T01:28:41.387Z,6.7
2018-11-20T01:28:53.804Z,6.7
2018-11-20T01:29:06.200Z,6.7
2018-11-20T01:29:18.597Z,6.7
2018-11-20T01:29:31.003Z,6.7
2018-11-20T01:29:44.012Z,6.7
2018-11-20T01:29:56.413Z,6.7
2018-11-20T01:30:08.834Z,6.7
2018-11-20T01:30:21.238Z,6.7
2018-11-20T01:30:33.613Z,6.7
2018-11-20T01:30:45.993Z,6.7
2018-11-20T01:30:58.387Z,6.7
2018-11-20T01:31:10.779Z,6.7
2018-11-20T01:31:23.188Z,6.7
2018-11-20T01:31:35.580Z,6.7
2018-11-20T01:31:47.981Z,6.7
2018-11-20T01:32:00.442Z,6.7
2018-11-20T01:32:12.857Z,6.7
2018-11-20T01:32:25.255Z,6.7
2018-11-20T01:32:37.636Z,6.7
2018-11-20T01:32:50.054Z,6.7
2018-11-20T01:33:02.436Z,6.7
2018-11-20T01:33:14.826Z,6.7
2018-11-20T01:33:27.239Z,6.7
2018-11-20T01:33:39.994Z,6.7
2018-11-20T01:33:52.387Z,6.7
2018-11-20T01:34:04.775Z,6.7
2018-11-20T01:34:17.220Z,6.7
2018-11-20T01:34:29.622Z,6.7
2018-11-20T01:34:42.018Z,6.7
2018-11-20T01:34:54.449Z,6.7
2018-11-20T01:35:06.847Z,6.7
2018-11-20T01:35:19.232Z,6.7
2018-11-20T01:35:31.614Z,6.7
2018-11-20T01:35:44.073Z,6.7
2018-11-20T01:35:56.457Z,6.7
2018-11-20T01:36:08.846Z,6.7
2018-11-20T01:36:21.503Z,6.7
2018-11-20T01:36:34.017Z,6.7
2018-11-20T01:36:46.680Z,6.7
2018-11-20T01:36:59.058Z,6.7
2018-11-20T01:37:11.473Z,6.7
2018-11-20T01:37:23.853Z,6.7
2018-11-20T01:37:36.250Z,6.7
2018-11-20T01:37:48.632Z,6.7
2018-11-20T01:38:01.010Z,6.7
2018-11-20T01:38:13.401Z,6.7
2018-11-20T01:38:25.783Z,6.7
2018-11-20T01:38:38.160Z,6.7
2018-11-20T01:38:50.542Z,6.7
2018-11-20T01:39:02.906Z,6.7
2018-11-20T01:39:15.271Z,6.7
2018-11-20T01:39:27.795Z,6.7
2018-11-20T01:39:40.219Z,6.7
2018-11-20T01:39:52.593Z,6.7
2018-11-20T01:40:04.990Z,6.7
2018-11-20T01:40:17.387Z,6.7
2018-11-20T01:40:29.775Z,6.7
2018-11-20T01:40:42.184Z,6.7
2018-11-20T01:40:54.571Z,6.7
2018-11-20T01:41:06.962Z,6.7
2018-11-20T01:41:19.726Z,6.7
2018-11-20T01:41:33.503Z,6.7
2018-11-20T01:41:46.546Z,6.7
2018-11-20T01:41:58.934Z,6.7
2018-11-20T01:42:11.320Z,6.7
2018-11-20T01:42:23.712Z,6.7
2018-11-20T01:42:36.130Z,6.7
2018-11-20T01:42:48.526Z,6.7
2018-11-20T01:43:00.900Z,6.7
2018-11-20T01:43:13.291Z,6.7
2018-11-20T01:43:25.663Z,6.7
2018-11-20T01:43:38.062Z,6.7
2018-11-20T01:43:50.465Z,6.04
2018-11-20T01:44:02.851Z,6.04
2018-11-20T01:44:15.242Z,6.04
2018-11-20T01:44:27.650Z,6.04
2018-11-20T01:44:40.036Z,6.04
2018-11-20T01:44:52.418Z,6.04
2018-11-20T01:45:04.799Z,6.04
2018-11-20T01:45:17.511Z,6.04
2018-11-20T01:45:29.922Z,6.04
2018-11-20T01:45:42.334Z,6.04
2018-11-20T01:45:54.762Z,6.04
2018-11-20T01:46:07.157Z,6.04
2018-11-20T01:46:19.534Z,6.04
2018-11-20T01:46:31.986Z,6.04
2018-11-20T01:46:44.433Z,6.04
2018-11-20T01:46:56.830Z,6.04
2018-11-20T01:47:09.212Z,6.04
2018-11-20T01:47:21.638Z,6.04
2018-11-20T01:47:34.028Z,6.04
2018-11-20T01:47:46.421Z,6.04
2018-11-20T01:47:58.807Z,6.04
2018-11-20T01:48:11.208Z,6.04
2018-11-20T01:48:23.579Z,6.04
2018-11-20T01:48:35.975Z,6.04
2018-11-20T01:48:48.370Z,6.04
2018-11-20T01:49:00.761Z,6.04
2018-11-20T01:49:13.302Z,6.04
2018-11-20T01:49:25.692Z,6.04
2018-11-20T01:49:38.080Z,6.04
2018-11-20T01:49:50.633Z,6.04
2018-11-20T01:50:03.038Z,6.04
2018-11-20T01:50:15.422Z,6.04
2018-11-20T01:50:27.850Z,6.04
2018-11-20T01:50:40.364Z,6.04
2018-11-20T01:50:52.755Z,6.04
2018-11-20T01:51:05.143Z,6.04
2018-11-20T01:51:18.126Z,6.04
2018-11-20T01:51:32.076Z,6.04
2018-11-20T01:51:44.908Z,6.04
2018-11-20T01:51:57.467Z,6.04
2018-11-20T01:52:09.852Z,6.04
2018-11-20T01:52:22.241Z,6.04
2018-11-20T01:52:34.629Z,6.04
2018-11-20T01:52:47.056Z,6.04
2018-11-20T01:52:59.452Z,6.04
2018-11-20T01:53:11.853Z,6.04
2018-11-20T01:53:24.249Z,6.04
2018-11-20T01:53:36.644Z,6.04
2018-11-20T01:53:49.051Z,6.85
2018-11-20T01:54:01.459Z,6.85
2018-11-20T01:54:13.835Z,6.85
2018-11-20T01:54:26.224Z,6.85
2018-11-20T01:54:38.596Z,6.85
2018-11-20T01:54:50.979Z,6.85
2018-11-20T01:55:03.985Z,6.85
2018-11-20T01:55:16.415Z,6.85
2018-11-20T01:55:28.804Z,6.85
2018-11-20T01:55:41.205Z,6.85
2018-11-20T01:55:53.620Z,6.85
2018-11-20T01:56:06.008Z,6.85
2018-11-20T01:56:18.385Z,6.85
2018-11-20T01:56:30.757Z,6.85
2018-11-20T01:56:43.141Z,6.85
2018-11-20T01:56:55.539Z,6.85
2018-11-20T01:57:07.934Z,6.85
2018-11-20T01:57:20.336Z,6.85
2018-11-20T01:57:32.737Z,6.85
2018-11-20T01:57:45.116Z,6.85
2018-11-20T01:57:57.494Z,6.85
2018-11-20T01:58:09.921Z,6.85
2018-11-20T01:58:22.358Z,6.85
2018-11-20T01:58:34.746Z,6.85
2018-11-20T01:58:47.131Z,6.85
2018-11-20T01:58:59.526Z,6.85
2018-11-20T01:59:11.925Z,6.85
2018-11-20T01:59:24.439Z,6.85
2018-11-20T01:59:36.889Z,6.85
2018-11-20T01:59:49.308Z,6.85
2018-11-20T02:00:01.742Z,6.85
2018-11-20T02:00:14.175Z,6.85
2018-11-20T02:00:26.585Z,6.85
2018-11-20T02:00:38.994Z,6.85
2018-11-20T02:00:51.401Z,6.85
2018-11-20T02:01:03.793Z,6.85
2018-11-20T02:01:16.201Z,6.85
2018-11-20T02:01:28.728Z,6.85
2018-11-20T02:01:41.110Z,6.85
2018-11-20T02:01:53.491Z,6.85
2018-11-20T02:02:06.024Z,6.85
2018-11-20T02:02:18.421Z,6.85
2018-11-20T02:02:30.798Z,6.85
2018-11-20T02:02:43.194Z,6.85
2018-11-20T02:02:55.599Z,6.85
2018-11-20T02:03:08.153Z,6.85
2018-11-20T02:03:20.531Z,6.85
2018-11-20T02:03:33.058Z,6.85
2018-11-20T02:03:45.506Z,6.21
2018-11-20T02:03:58.256Z,6.21
2018-11-20T02:04:11.864Z,6.21
2018-11-20T02:04:25.074Z,6.21
2018-11-20T02:04:37.470Z,6.21
2018-11-20T02:04:49.871Z,6.21
2018-11-20T02:05:02.699Z,6.21
2018-11-20T02:05:15.099Z,6.21
2018-11-20T02:05:27.490Z,6.21
2018-11-20T02:05:39.880Z,6.21
2018-11-20T02:05:52.395Z,6.21
2018-11-20T02:06:04.847Z,6.21
2018-11-20T02:06:17.213Z,6.21
2018-11-20T02:06:29.599Z,6.21
2018-11-20T02:06:42.115Z,6.21
2018-11-20T02:06:54.499Z,6.21
2018-11-20T02:07:06.885Z,6.21
2018-11-20T02:07:19.377Z,6.21
2018-11-20T02:07:31.798Z,6.21
2018-11-20T02:07:44.212Z,6.21
2018-11-20T02:07:56.606Z,6.21
2018-11-20T02:08:09.131Z,6.21
2018-11-20T02:08:21.499Z,6.21
2018-11-20T02:08:33.966Z,6.21
2018-11-20T02:08:46.356Z,6.21
2018-11-20T02:08:58.744Z,6.21
2018-11-20T02:09:11.134Z,6.21
2018-11-20T02:09:23.511Z,6.21
2018-11-20T02:09:35.960Z,6.21
2018-11-20T02:09:48.359Z,6.21
2018-11-20T02:10:00.735Z,6.21
2018-11-20T02:10:13.157Z,6.21
2018-11-20T02:10:25.530Z,6.21
2018-11-20T02:10:37.914Z,6.21
2018-11-20T02:10:50.299Z,6.21
2018-11-20T02:11:02.689Z,6.21
2018-11-20T02:11:15.096Z,6.21
2018-11-20T02:11:27.498Z,6.21
2018-11-20T02:11:39.895Z,6.21
2018-11-20T02:11:52.423Z,6.21
2018-11-20T02:12:04.808Z,6.21
2018-11-20T02:12:17.204Z,6.21
2018-11-20T02:12:29.595Z,6.21
2018-11-20T02:12:42.006Z,6.21
2018-11-20T02:12:54.385Z,6.21
2018-11-20T02:13:06.786Z,6.21
2018-11-20T02:13:19.178Z,6.21
2018-11-20T02:13:31.592Z,6.21
2018-11-20T02:13:43.969Z,5.8
2018-11-20T02:13:56.361Z,5.8
2018-11-20T02:14:08.757Z,5.8
2018-11-20T02:14:21.157Z,5.8
2018-11-20T02:14:33.550Z,5.8
2018-11-20T02:14:45.930Z,5.8
2018-11-20T02:14:58.315Z,5.8
2018-11-20T02:15:10.708Z,5.8
2018-11-20T02:15:23.080Z,5.8
2018-11-20T02:15:35.454Z,5.8
2018-11-20T02:15:47.821Z,5.8
2018-11-20T02:16:00.198Z,5.8
2018-11-20T02:16:12.605Z,5.8
2018-11-20T02:16:24.975Z,5.8
2018-11-20T02:16:37.559Z,5.8
2018-11-20T02:16:50.128Z,5.8
2018-11-20T02:17:02.681Z,5.8
2018-11-20T02:17:15.057Z,5.8
2018-11-20T02:17:27.449Z,5.8
2018-11-20T02:17:39.834Z,5.8
2018-11-20T02:17:52.218Z,5.8
2018-11-20T02:18:04.608Z,5.8
2018-11-20T02:18:16.988Z,5.8
2018-11-20T02:18:29.384Z,5.8
2018-11-20T02:18:41.759Z,5.8
2018-11-20T02:18:54.152Z,5.8
2018-11-20T02:19:06.527Z,5.8
2018-11-20T02:19:18.900Z,5.8
2018-11-20T02:19:31.263Z,5.8
2018-11-20T02:19:43.647Z,5.8
2018-11-20T02:19:56.023Z,5.8
2018-11-20T02:20:08.415Z,5.8
2018-11-20T02:20:20.926Z,5.8
2018-11-20T02:20:33.321Z,5.8
2018-11-20T02:20:45.723Z,5.8
2018-11-20T02:20:58.126Z,5.8
2018-11-20T02:21:10.515Z,5.8
2018-11-20T02:21:22.904Z,5.8
2018-11-20T02:21:35.286Z,5.8
2018-11-20T02:21:47.675Z,5.8
2018-11-20T02:22:00.051Z,5.8
2018-11-20T02:22:12.528Z,5.8
2018-11-20T02:22:24.934Z,5.8
2018-11-20T02:22:37.318Z,5.8
2018-11-20T02:22:49.708Z,5.8
2018-11-20T02:23:02.103Z,5.8
2018-11-20T02:23:14.492Z,5.8
2018-11-20T02:23:26.889Z,5.8
2018-11-20T02:23:39.294Z,5.8
2018-11-20T02:23:51.676Z,6.04
2018-11-20T02:24:04.045Z,6.04
2018-11-20T02:24:16.434Z,6.04
2018-11-20T02:24:28.823Z,6.04
2018-11-20T02:24:41.227Z,6.04
2018-11-20T02:24:53.616Z,6.04
2018-11-20T02:25:06.013Z,6.04
2018-11-20T02:25:18.390Z,6.04
2018-11-20T02:25:30.760Z,6.04
2018-11-20T02:25:43.321Z,6.04
2018-11-20T02:25:55.744Z,6.04
2018-11-20T02:26:08.135Z,6.04
2018-11-20T02:26:20.538Z,6.04
2018-11-20T02:26:32.918Z,6.04
2018-11-20T02:26:45.316Z,6.04
2018-11-20T02:26:57.676Z,6.04
2018-11-20T02:27:10.064Z,6.04
2018-11-20T02:27:22.443Z,6.04
2018-11-20T02:27:34.821Z,6.04
2018-11-20T02:27:47.202Z,6.04
2018-11-20T02:27:59.597Z,6.04
2018-11-20T02:28:11.994Z,6.04
2018-11-20T02:28:24.378Z,6.04
2018-11-20T02:28:36.762Z,6.04
2018-11-20T02:28:49.151Z,6.04
2018-11-20T02:29:01.548Z,6.04
2018-11-20T02:29:13.946Z,6.04
2018-11-20T02:29:26.352Z,6.04
2018-11-20T02:29:38.753Z,6.04
2018-11-20T02:29:51.296Z,6.04
2018-11-20T02:30:03.869Z,6.04
2018-11-20T02:30:16.314Z,6.04
2018-11-20T02:30:28.739Z,6.04
2018-11-20T02:30:41.176Z,6.04
2018-11-20T02:30:53.550Z,6.04
2018-11-20T02:31:05.938Z,6.04
2018-11-20T02:31:18.332Z,6.04
2018-11-20T02:31:30.718Z,6.04
2018-11-20T02:31:43.113Z,6.04
2018-11-20T02:31:55.499Z,6.04
2018-11-20T02:32:07.889Z,6.04
2018-11-20T02:32:20.284Z,6.04
2018-11-20T02:32:32.687Z,6.04
2018-11-20T02:32:45.080Z,6.04
2018-11-20T02:32:57.472Z,6.04
2018-11-20T02:33:09.855Z,6.04
2018-11-20T02:33:22.249Z,6.04
2018-11-20T02:33:34.817Z,6.04
2018-11-20T02:33:47.363Z,5.05
2018-11-20T02:33:59.767Z,5.05
2018-11-20T02:34:12.250Z,5.05
2018-11-20T02:34:24.637Z,5.05
2018-11-20T02:34:37.058Z,5.05
2018-11-20T02:34:49.439Z,5.05
2018-11-20T02:35:01.827Z,5.05
2018-11-20T02:35:14.231Z,5.05
2018-11-20T02:35:26.724Z,5.05
2018-11-20T02:35:39.094Z,5.05
2018-11-20T02:35:51.476Z,5.05
2018-11-20T02:36:03.922Z,5.05
2018-11-20T02:36:16.322Z,5.05
2018-11-20T02:36:28.862Z,5.05
2018-11-20T02:36:41.412Z,5.05
2018-11-20T02:36:54.080Z,5.05
2018-11-20T02:37:06.473Z,5.05
2018-11-20T02:37:18.865Z,5.05
2018-11-20T02:37:31.255Z,5.05
2018-11-20T02:37:43.648Z,5.05
2018-11-20T02:37:56.069Z,5.05
2018-11-20T02:38:08.433Z,5.05
2018-11-20T02:38:20.828Z,5.05
2018-11-20T02:38:33.219Z,5.05
2018-11-20T02:38:45.638Z,5.05
2018-11-20T02:38:58.011Z,5.05
2018-11-20T02:39:10.441Z,5.05
2018-11-20T02:39:22.846Z,5.05
2018-11-20T02:39:35.213Z,5.05
2018-11-20T02:39:47.596Z,5.05
2018-11-20T02:39:59.975Z,5.05
2018-11-20T02:40:12.374Z,5.05
2018-11-20T02:40:24.765Z,5.05
2018-11-20T02:40:37.210Z,5.05
2018-11-20T02:40:49.589Z,5.05
2018-11-20T02:41:01.995Z,5.05
2018-11-20T02:41:14.376Z,5.05
2018-11-20T02:41:26.750Z,5.05
2018-11-20T02:41:39.147Z,5.05
2018-11-20T02:41:51.604Z,5.05
2018-11-20T02:42:03.985Z,5.05
2018-11-20T02:42:16.360Z,5.05
2018-11-20T02:42:28.728Z,5.05
2018-11-20T02:42:41.138Z,5.05
2018-11-20T02:42:53.515Z,5.05
2018-11-20T02:43:05.897Z,5.05
2018-11-20T02:43:18.280Z,5.05
2018-11-20T02:43:30.701Z,5.05
2018-11-20T02:43:43.094Z,5.3
2018-11-20T02:43:55.478Z,5.3
2018-11-20T02:44:07.892Z,5.3
2018-11-20T02:44:20.277Z,5.3
2018-11-20T02:44:32.660Z,5.3
2018-11-20T02:44:45.051Z,5.3
2018-11-20T02:44:57.442Z,5.3
2018-11-20T02:45:09.849Z,5.3
2018-11-20T02:45:22.241Z,5.3
2018-11-20T02:45:34.635Z,5.3
2018-11-20T02:45:47.111Z,5.3
2018-11-20T02:45:59.513Z,5.3
2018-11-20T02:46:11.901Z,5.3
2018-11-20T02:46:24.283Z,5.3
2018-11-20T02:46:36.860Z,5.3